Time;durP1;ratioP1;P1;durP2;ratioP2;P2;SDS_P1;SDS_P2;PMS_P1;PMS_P2;Temp;Humidity;BMP_temperature;BMP_pressure;BME280_temperature;BME280_humidity;BME280_pressure;Samples;Min_cycle;Max_cycle;Signal;HPM_P1;HPM_P2
2022/01/11 00:00:25;;;;;;;;;;;-0.10;99.90;;;;;;4947906;28;19996;-82
2022/01/11 00:02:52;;;;;;;;;;;-0.10;99.90;;;;;;4947484;28;19934;-82
2022/01/11 00:05:24;;;;;;;;;;;-0.10;99.90;;;;;;4939565;28;19981;-82
2022/01/11 00:07:52;;;;;;;;;;;-0.10;99.90;;;;;;4961457;28;19970;-82
2022/01/11 00:10:35;;;;;;;;;;;-0.10;99.90;;;;;;4963239;28;20419;-82
2022/01/11 00:13:02;;;;;;;;;;;-0.10;99.90;;;;;;4945533;28;19930;-82
2022/01/11 00:15:29;;;;;;;;;;;-0.10;99.90;;;;;;4949488;28;20009;-82
2022/01/11 00:17:57;;;;;;;;;;;-0.10;99.90;;;;;;4948046;28;19970;-82
2022/01/11 00:20:27;;;;;;;;;;;-0.10;99.90;;;;;;4948708;28;19981;-82
2022/01/11 00:25:27;;;;;;;;;;;-0.10;99.90;;;;;;4949599;28;20356;-82
2022/01/11 00:27:55;;;;;;;;;;;-0.10;99.90;;;;;;4948061;28;20044;-82
2022/01/11 00:30:24;;;;;;;;;;;-0.20;99.90;;;;;;4944375;28;20294;-82
2022/01/11 00:32:54;;;;;;;;;;;-0.20;99.90;;;;;;4948747;28;19930;-82
2022/01/11 00:35:27;;;;;;;;;;;-0.20;99.90;;;;;;4961569;28;19927;-81
2022/01/11 00:37:55;;;;;;;;;;;-0.20;99.90;;;;;;4956585;28;19969;-82
2022/01/11 00:40:22;;;;;;;;;;;-0.20;99.90;;;;;;4930528;28;20226;-82
2022/01/11 00:42:48;;;;;;;;;;;-0.20;99.90;;;;;;4948210;28;20374;-82
2022/01/11 00:45:15;;;;;;;;;;;-0.20;99.90;;;;;;4947251;28;20502;-82
2022/01/11 00:47:56;;;;;;;;;;;-0.20;99.90;;;;;;3104504;28;10001101;-82
2022/01/11 00:50:24;;;;;;;;;;;-0.20;99.90;;;;;;2566102;28;10001435;-82
2022/01/11 00:52:51;;;;;;;;;;;-0.20;99.90;;;;;;4980434;28;19921;-82
2022/01/11 00:55:19;;;;;;;;;;;-0.20;99.90;;;;;;4965652;28;19969;-82
2022/01/11 00:57:45;;;;;;;;;;;-0.20;99.90;;;;;;4981323;28;19928;-82
2022/01/11 01:00:13;;;;;;;;;;;-0.20;99.90;;;;;;4983754;28;19922;-82
2022/01/11 01:02:40;;;;;;;;;;;-0.20;99.90;;;;;;4970781;28;19938;-82
2022/01/11 01:05:07;;;;;;;;;;;-0.20;99.90;;;;;;4966790;28;19953;-82
2022/01/11 01:07:34;;;;;;;;;;;-0.20;99.90;;;;;;4966603;28;19922;-82
2022/01/11 01:10:06;;;;;;;;;;;-0.20;99.90;;;;;;4966840;28;19926;-83
2022/01/11 01:12:39;;;;;;;;;;;-0.20;99.90;;;;;;4964139;28;20307;-82
2022/01/11 01:15:06;;;;;;;;;;;-0.20;99.90;;;;;;4977700;28;19926;-82
2022/01/11 01:17:35;;;;;;;;;;;-0.20;99.90;;;;;;4969158;28;19930;-82
2022/01/11 01:20:03;;;;;;;;;;;-0.20;99.90;;;;;;4975421;28;19922;-82
2022/01/11 01:22:29;;;;;;;;;;;-0.30;99.90;;;;;;4963161;28;19925;-82
2022/01/11 01:24:56;;;;;;;;;;;-0.30;99.90;;;;;;4979636;28;19930;-83
2022/01/11 01:27:23;;;;;;;;;;;-0.30;99.90;;;;;;4968372;28;20021;-82
2022/01/11 01:29:50;;;;;;;;;;;-0.30;99.90;;;;;;4966251;28;19933;-82
2022/01/11 01:32:17;;;;;;;;;;;-0.30;99.90;;;;;;4963312;28;19926;-82
2022/01/11 01:34:44;;;;;;;;;;;-0.30;99.90;;;;;;4963283;28;19965;-82
2022/01/11 01:37:10;;;;;;;;;;;-0.30;99.90;;;;;;4982715;28;20361;-82
2022/01/11 01:39:37;;;;;;;;;;;-0.30;99.90;;;;;;4966109;28;19922;-82
2022/01/11 01:42:05;;;;;;;;;;;-0.30;99.90;;;;;;4967909;28;20009;-82
2022/01/11 01:44:33;;;;;;;;;;;-0.30;99.90;;;;;;4956282;28;19961;-82
2022/01/11 01:47:00;;;;;;;;;;;-0.30;99.90;;;;;;4980700;28;19922;-82
2022/01/11 01:49:28;;;;;;;;;;;-0.30;99.90;;;;;;4963876;28;19929;-83
2022/01/11 01:51:55;;;;;;;;;;;-0.30;99.90;;;;;;4965338;28;19925;-82
2022/01/11 01:54:23;;;;;;;;;;;-0.30;99.90;;;;;;4962331;28;20496;-82
2022/01/11 01:56:50;;;;;;;;;;;-0.30;99.90;;;;;;4978738;28;19926;-82
2022/01/11 01:59:17;;;;;;;;;;;-0.30;99.90;;;;;;4963310;28;19962;-82
2022/01/11 02:01:46;;;;;;;;;;;-0.30;99.90;;;;;;4970326;28;19922;-82
2022/01/11 02:04:15;;;;;;;;;;;-0.30;99.90;;;;;;4962617;28;19922;-82
2022/01/11 02:06:43;;;;;;;;;;;-0.30;99.90;;;;;;4965375;28;19984;-82
2022/01/11 02:09:10;;;;;;;;;;;-0.30;99.90;;;;;;4963859;28;20002;-82
2022/01/11 02:11:38;;;;;;;;;;;-0.30;99.90;;;;;;4979387;28;20347;-82
2022/01/11 02:14:05;;;;;;;;;;;-0.30;99.90;;;;;;4959960;28;20569;-82
2022/01/11 02:16:32;;;;;;;;;;;-0.40;99.90;;;;;;4958819;28;19964;-82
2022/01/11 02:18:59;;;;;;;;;;;-0.40;99.90;;;;;;4968913;28;19930;-82
2022/01/11 02:21:26;;;;;;;;;;;-0.40;99.90;;;;;;4963536;28;19922;-82
2022/01/11 02:23:55;;;;;;;;;;;-0.40;99.90;;;;;;4970165;28;19945;-82
2022/01/11 02:26:23;;;;;;;;;;;-0.40;99.90;;;;;;4979159;28;20013;-82
2022/01/11 02:28:51;;;;;;;;;;;-0.40;99.90;;;;;;4959631;28;19952;-82
2022/01/11 02:31:18;;;;;;;;;;;-0.40;99.90;;;;;;4943698;28;19926;-82
2022/01/11 02:33:51;;;;;;;;;;;-0.40;99.90;;;;;;4978304;28;19933;-82
2022/01/11 02:36:38;;;;;;;;;;;-0.40;99.90;;;;;;4964300;28;20397;-82
2022/01/11 02:39:34;;;;;;;;;;;-0.40;99.90;;;;;;4951020;28;20338;-82
2022/01/11 02:42:23;;;;;;;;;;;-0.40;99.90;;;;;;4974925;28;19939;-82
2022/01/11 02:44:50;;;;;;;;;;;-0.30;99.90;;;;;;4964408;28;20423;-82
2022/01/11 02:47:19;;;;;;;;;;;-0.40;99.90;;;;;;4964210;28;19926;-82
2022/01/11 02:49:49;;;;;;;;;;;-0.40;99.90;;;;;;4966456;28;20237;-82
2022/01/11 02:52:25;;;;;;;;;;;-0.40;99.90;;;;;;4955144;28;20400;-82
2022/01/11 02:54:59;;;;;;;;;;;-0.40;99.90;;;;;;4978694;28;19922;-82
2022/01/11 02:57:26;;;;;;;;;;;-0.40;99.90;;;;;;4982549;28;20303;-82
2022/01/11 03:00:04;;;;;;;;;;;-0.40;99.90;;;;;;4979149;28;19926;-82
2022/01/11 03:02:31;;;;;;;;;;;-0.40;99.90;;;;;;4970870;28;20007;-82
2022/01/11 03:04:58;;;;;;;;;;;-0.40;99.90;;;;;;4962008;28;19922;-82
2022/01/11 03:07:26;;;;;;;;;;;-0.40;99.90;;;;;;4980627;28;19997;-82
2022/01/11 03:10:09;;;;;;;;;;;-0.40;99.90;;;;;;4968981;28;19932;-82
2022/01/11 03:12:44;;;;;;;;;;;-0.40;99.90;;;;;;4981468;28;19994;-82
2022/01/11 03:15:12;;;;;;;;;;;-0.50;99.90;;;;;;4965421;28;20072;-82
2022/01/11 03:17:40;;;;;;;;;;;-0.50;99.90;;;;;;4968823;28;19936;-82
2022/01/11 03:20:07;;;;;;;;;;;-0.50;99.90;;;;;;4963287;28;20356;-82
2022/01/11 03:22:35;;;;;;;;;;;-0.50;99.90;;;;;;4961106;28;20379;-82
2022/01/11 03:25:05;;;;;;;;;;;-0.50;99.90;;;;;;4982085;28;19998;-82
2022/01/11 03:27:32;;;;;;;;;;;-0.50;99.90;;;;;;4982730;28;19928;-82
2022/01/11 03:30:01;;;;;;;;;;;-0.50;99.90;;;;;;4969333;28;19929;-82
2022/01/11 03:32:29;;;;;;;;;;;-0.50;99.90;;;;;;4963666;28;19922;-82
2022/01/11 03:35:09;;;;;;;;;;;-0.50;99.90;;;;;;4981055;28;19933;-82
2022/01/11 03:37:37;;;;;;;;;;;-0.50;99.90;;;;;;4970527;28;19941;-82
2022/01/11 03:40:06;;;;;;;;;;;-0.60;99.90;;;;;;4981462;28;19976;-82
2022/01/11 03:42:32;;;;;;;;;;;-0.60;99.90;;;;;;4968595;28;19956;-82
2022/01/11 03:45:01;;;;;;;;;;;-0.60;99.90;;;;;;4982694;28;19925;-82
2022/01/11 03:47:32;;;;;;;;;;;-0.60;99.90;;;;;;4985060;28;19975;-82
2022/01/11 03:50:00;;;;;;;;;;;-0.60;99.90;;;;;;4966453;28;20005;-82
2022/01/11 03:52:27;;;;;;;;;;;-0.60;99.90;;;;;;4980269;28;20407;-82
2022/01/11 03:57:30;;;;;;;;;;;-0.60;99.90;;;;;;4971606;28;20009;-82
2022/01/11 03:59:58;;;;;;;;;;;-0.60;99.90;;;;;;4965916;28;19930;-82
2022/01/11 04:02:26;;;;;;;;;;;-0.60;99.90;;;;;;4966543;28;20415;-82
2022/01/11 04:04:54;;;;;;;;;;;-0.60;99.90;;;;;;4966968;28;19953;-81
2022/01/11 04:07:22;;;;;;;;;;;-0.60;99.90;;;;;;4966186;28;20363;-81
2022/01/11 04:09:50;;;;;;;;;;;-0.60;99.90;;;;;;4983513;28;19953;-81
2022/01/11 04:12:17;;;;;;;;;;;-0.60;99.90;;;;;;4981214;28;19926;-81
2022/01/11 04:14:44;;;;;;;;;;;-0.60;99.90;;;;;;4966289;28;19926;-81
2022/01/11 04:17:11;;;;;;;;;;;-0.60;99.90;;;;;;4960394;28;19989;-81
2022/01/11 04:19:39;;;;;;;;;;;-0.50;99.90;;;;;;4982916;28;19922;-82
2022/01/11 04:22:06;;;;;;;;;;;-0.60;99.90;;;;;;4959576;28;20674;-82
2022/01/11 04:24:34;;;;;;;;;;;-0.60;99.90;;;;;;4965854;28;19965;-81
2022/01/11 04:27:01;;;;;;;;;;;-0.60;99.90;;;;;;4942881;28;19980;-81
2022/01/11 04:29:28;;;;;;;;;;;-0.60;99.90;;;;;;1308089;28;10001872;-81
2022/01/11 04:31:55;;;;;;;;;;;-0.50;99.90;;;;;;4947061;28;20291;-81
2022/01/11 04:34:25;;;;;;;;;;;-0.50;99.90;;;;;;4947074;28;19922;-81
2022/01/11 04:36:52;;;;;;;;;;;-0.50;99.90;;;;;;4961237;28;19954;-81
2022/01/11 04:39:19;;;;;;;;;;;-0.50;99.90;;;;;;4963226;28;19980;-81
2022/01/11 04:41:46;;;;;;;;;;;-0.50;99.90;;;;;;4948031;28;20348;-81
2022/01/11 04:44:13;;;;;;;;;;;-0.50;99.90;;;;;;4959478;28;20402;-81
2022/01/11 04:46:40;;;;;;;;;;;-0.60;99.90;;;;;;4961804;28;19950;-81
2022/01/11 04:49:07;;;;;;;;;;;-0.50;99.90;;;;;;4961217;28;19933;-81
2022/01/11 04:51:35;;;;;;;;;;;-0.50;99.90;;;;;;4949300;28;19922;-81
2022/01/11 04:54:03;;;;;;;;;;;-0.60;99.90;;;;;;4967975;28;19936;-81
2022/01/11 04:56:30;;;;;;;;;;;-0.60;99.90;;;;;;4945402;28;19958;-81
2022/01/11 04:58:59;;;;;;;;;;;-0.60;99.90;;;;;;2371028;28;10021863;-81
2022/01/11 05:01:28;;;;;;;;;;;-0.60;99.90;;;;;;3937855;28;10001232;-81
2022/01/11 05:03:55;;;;;;;;;;;-0.60;99.90;;;;;;4944255;28;20250;-81
2022/01/11 05:06:22;;;;;;;;;;;-0.50;99.90;;;;;;4947542;28;19930;-81
2022/01/11 05:08:49;;;;;;;;;;;-0.60;99.90;;;;;;4955772;28;20376;-81
2022/01/11 05:11:16;;;;;;;;;;;-0.60;99.90;;;;;;4945786;28;19957;-81
2022/01/11 05:13:43;;;;;;;;;;;-0.60;99.90;;;;;;4946701;28;20453;-81
2022/01/11 05:16:32;;;;;;;;;;;-0.60;99.90;;;;;;4943391;28;19933;-81
2022/01/11 05:18:59;;;;;;;;;;;-0.60;99.90;;;;;;4960334;28;19981;-81
2022/01/11 05:21:26;;;;;;;;;;;-0.60;99.90;;;;;;4962854;28;19930;-82
2022/01/11 05:23:53;;;;;;;;;;;-0.60;99.90;;;;;;4943508;28;20357;-82
2022/01/11 05:26:21;;;;;;;;;;;-0.60;99.90;;;;;;4945945;28;19938;-82
2022/01/11 05:28:48;;;;;;;;;;;-0.60;99.90;;;;;;4947225;28;20041;-82
2022/01/11 05:31:15;;;;;;;;;;;-0.60;99.90;;;;;;4944469;28;20047;-81
2022/01/11 05:33:42;;;;;;;;;;;-0.60;99.90;;;;;;4944559;28;19922;-81
2022/01/11 05:36:09;;;;;;;;;;;-0.60;99.90;;;;;;4961861;28;19928;-81
2022/01/11 05:38:37;;;;;;;;;;;-0.60;99.90;;;;;;4958899;28;19953;-81
2022/01/11 05:41:04;;;;;;;;;;;-0.60;99.90;;;;;;4956056;28;20435;-82
2022/01/11 05:43:31;;;;;;;;;;;-0.60;99.90;;;;;;4944548;28;20009;-82
2022/01/11 05:45:58;;;;;;;;;;;-0.60;99.90;;;;;;4943020;28;19948;-82
2022/01/11 05:48:25;;;;;;;;;;;-0.60;99.90;;;;;;4960105;28;19997;-82
2022/01/11 05:50:52;;;;;;;;;;;-0.60;99.90;;;;;;4963578;28;19949;-82
2022/01/11 05:53:21;;;;;;;;;;;-0.50;99.90;;;;;;4965954;28;19985;-81
2022/01/11 05:55:49;;;;;;;;;;;-0.50;99.90;;;;;;4976627;28;19926;-81
2022/01/11 05:58:35;;;;;;;;;;;-0.50;99.90;;;;;;1938591;28;10021480;-81
2022/01/11 06:01:03;;;;;;;;;;;-0.50;99.90;;;;;;3934309;28;10001282;-82
2022/01/11 06:03:31;;;;;;;;;;;-0.60;99.90;;;;;;4980388;28;20466;-82
2022/01/11 06:05:58;;;;;;;;;;;-0.60;99.90;;;;;;4979987;28;19972;-82
2022/01/11 06:08:26;;;;;;;;;;;-0.60;99.90;;;;;;4960721;28;19985;-82
2022/01/11 06:10:52;;;;;;;;;;;-0.60;99.90;;;;;;4961488;28;19926;-82
2022/01/11 06:13:22;;;;;;;;;;;-0.60;99.90;;;;;;4978557;28;20470;-81
2022/01/11 06:15:52;;;;;;;;;;;-0.60;99.90;;;;;;4970130;28;19928;-81
2022/01/11 06:18:20;;;;;;;;;;;-0.60;99.90;;;;;;4981222;28;20443;-82
2022/01/11 06:21:13;;;;;;;;;;;-0.60;99.90;;;;;;4966063;28;19969;-82
2022/01/11 06:23:40;;;;;;;;;;;-0.60;99.90;;;;;;4971748;28;19929;-82
2022/01/11 06:26:08;;;;;;;;;;;-0.60;99.90;;;;;;4962633;28;19926;-82
2022/01/11 06:28:35;;;;;;;;;;;-0.60;99.90;;;;;;4978070;28;19984;-82
2022/01/11 06:31:01;;;;;;;;;;;-0.70;99.90;;;;;;4967121;28;19964;-81
2022/01/11 06:33:29;;;;;;;;;;;-0.70;99.90;;;;;;4964033;28;20026;-81
2022/01/11 06:35:55;;;;;;;;;;;-0.70;99.90;;;;;;4968098;28;19976;-81
2022/01/11 06:38:23;;;;;;;;;;;-0.70;99.90;;;;;;4965382;28;19922;-81
2022/01/11 06:40:51;;;;;;;;;;;-0.70;99.90;;;;;;4986112;28;19925;-81
2022/01/11 06:43:19;;;;;;;;;;;-0.70;99.90;;;;;;4984591;28;20012;-81
2022/01/11 06:45:46;;;;;;;;;;;-0.70;99.90;;;;;;4986256;28;20040;-81
2022/01/11 06:48:17;;;;;;;;;;;-0.70;99.90;;;;;;4987011;28;19922;-81
2022/01/11 06:50:44;;;;;;;;;;;-0.70;99.90;;;;;;4964582;28;20021;-81
2022/01/11 06:53:11;;;;;;;;;;;-0.70;99.90;;;;;;4966034;28;19926;-81
2022/01/11 06:55:43;;;;;;;;;;;-0.70;99.90;;;;;;4984097;28;19984;-81
2022/01/11 06:58:10;;;;;;;;;;;-0.70;99.90;;;;;;4966812;28;20395;-81
2022/01/11 07:00:38;;;;;;;;;;;-0.70;99.90;;;;;;4968019;28;19965;-81
2022/01/11 07:03:09;;;;;;;;;;;-0.70;99.90;;;;;;4981358;28;19936;-82
2022/01/11 07:05:51;;;;;;;;;;;-0.70;99.90;;;;;;4980920;28;19997;-81
2022/01/11 07:08:18;;;;;;;;;;;-0.70;99.90;;;;;;4968781;28;19926;-81
2022/01/11 07:10:47;;;;;;;;;;;-0.70;99.90;;;;;;4977552;28;19934;-81
2022/01/11 07:13:14;;;;;;;;;;;-0.70;99.90;;;;;;4966907;28;19970;-81
2022/01/11 07:15:41;;;;;;;;;;;-0.70;99.90;;;;;;4968742;28;20029;-81
2022/01/11 07:18:12;;;;;;;;;;;-0.70;99.90;;;;;;4967511;28;19926;-81
2022/01/11 07:20:43;;;;;;;;;;;-0.70;99.90;;;;;;4979294;28;19950;-81
2022/01/11 07:23:16;;;;;;;;;;;-0.70;99.90;;;;;;4966822;28;19966;-81
2022/01/11 07:25:43;;;;;;;;;;;-0.70;99.90;;;;;;4985954;28;19922;-81
2022/01/11 07:28:31;;;;;;;;;;;-0.70;99.90;;;;;;4967379;28;19973;-82
2022/01/11 07:31:05;;;;;;;;;;;-0.70;99.90;;;;;;4976352;28;19933;-81
2022/01/11 07:33:41;;;;;;;;;;;-0.80;99.90;;;;;;4966835;28;19931;-82
2022/01/11 07:36:09;;;;;;;;;;;-0.70;99.90;;;;;;4984710;28;19926;-82
2022/01/11 07:38:40;;;;;;;;;;;-0.70;99.90;;;;;;4961287;28;19981;-81
2022/01/11 07:41:12;;;;;;;;;;;-0.70;99.90;;;;;;4948338;28;19930;-81
2022/01/11 07:43:54;;;;;;;;;;;-0.70;99.90;;;;;;4952943;28;19932;-82
2022/01/11 07:46:28;;;;;;;;;;;-0.70;99.90;;;;;;4953601;28;19929;-81
2022/01/11 07:48:59;;;;;;;;;;;-0.70;99.90;;;;;;4948084;28;19977;-81
2022/01/11 07:51:31;;;;;;;;;;;-0.60;99.90;;;;;;4946210;28;20352;-82
2022/01/11 07:54:01;;;;;;;;;;;-0.70;99.90;;;;;;4927702;29;19926;-81
2022/01/11 07:56:28;;;;;;;;;;;-0.60;99.90;;;;;;4964964;28;19953;-81
2022/01/11 07:58:56;;;;;;;;;;;-0.70;99.90;;;;;;4976203;28;19925;-81
2022/01/11 08:01:35;;;;;;;;;;;-0.70;99.90;;;;;;4986340;28;19937;-81
2022/01/11 08:04:03;;;;;;;;;;;-0.60;99.90;;;;;;4939204;28;19926;-81
2022/01/11 08:06:35;;;;;;;;;;;-0.60;99.90;;;;;;4970460;28;19992;-81
2022/01/11 08:09:10;;;;;;;;;;;-0.60;99.90;;;;;;4962282;28;20718;-81
2022/01/11 08:11:37;;;;;;;;;;;-0.60;99.90;;;;;;4967581;28;19930;-81
2022/01/11 08:14:05;;;;;;;;;;;-0.60;99.90;;;;;;4982282;28;19930;-81
2022/01/11 08:16:54;;;;;;;;;;;-0.60;99.90;;;;;;4938906;28;19932;-81
2022/01/11 08:19:25;;;;;;;;;;;-0.60;99.90;;;;;;4964490;28;19989;-81
2022/01/11 08:21:53;;;;;;;;;;;-0.50;99.90;;;;;;4977696;28;19998;-80
2022/01/11 08:24:23;;;;;;;;;;;-0.50;99.90;;;;;;4976060;28;20013;-81
2022/01/11 08:26:53;;;;;;;;;;;-0.50;99.90;;;;;;4970205;28;19944;-80
2022/01/11 08:29:22;;;;;;;;;;;-0.50;99.90;;;;;;4961301;28;20009;-80
2022/01/11 08:31:56;;;;;;;;;;;-0.50;99.90;;;;;;4986792;28;19921;-80
2022/01/11 08:34:23;;;;;;;;;;;-0.50;99.90;;;;;;4979014;28;20434;-81
2022/01/11 08:36:54;;;;;;;;;;;-0.50;99.90;;;;;;4957428;28;19937;-82
2022/01/11 08:39:22;;;;;;;;;;;-0.40;99.90;;;;;;4960661;28;20003;-81
2022/01/11 08:41:49;;;;;;;;;;;-0.40;99.90;;;;;;4972855;28;19933;-81
2022/01/11 08:44:16;;;;;;;;;;;-0.40;99.90;;;;;;4964581;28;19926;-81
2022/01/11 08:46:55;;;;;;;;;;;-0.40;99.90;;;;;;4240269;28;10000082;-82
2022/01/11 08:49:28;;;;;;;;;;;-0.30;99.90;;;;;;2046365;28;10002123;-82
2022/01/11 08:51:55;;;;;;;;;;;-0.30;99.90;;;;;;4966628;28;20001;-82
2022/01/11 08:54:24;;;;;;;;;;;-0.40;99.90;;;;;;4978960;28;20084;-82
2022/01/11 08:56:55;;;;;;;;;;;-0.30;99.90;;;;;;4985420;28;20024;-82
2022/01/11 08:59:23;;;;;;;;;;;-0.30;99.90;;;;;;4981152;28;19934;-82
2022/01/11 09:01:52;;;;;;;;;;;-0.20;99.90;;;;;;4984186;28;20001;-82
2022/01/11 09:04:20;;;;;;;;;;;-0.20;99.90;;;;;;4978712;28;19922;-81
2022/01/11 09:07:08;;;;;;;;;;;-0.20;99.90;;;;;;4972189;28;19922;-81
2022/01/11 09:09:35;;;;;;;;;;;-0.20;99.90;;;;;;4968052;28;20596;-81
2022/01/11 09:12:05;;;;;;;;;;;-0.20;99.90;;;;;;4963642;28;19981;-81
2022/01/11 09:14:36;;;;;;;;;;;-0.20;99.90;;;;;;4974144;28;19981;-81
2022/01/11 09:17:03;;;;;;;;;;;-0.10;99.90;;;;;;4985102;28;20088;-81
2022/01/11 09:19:31;;;;;;;;;;;-0.10;99.90;;;;;;4981040;28;20060;-82
2022/01/11 09:21:59;;;;;;;;;;;-0.10;99.90;;;;;;4989903;28;19937;-82
2022/01/11 09:24:29;;;;;;;;;;;-0.10;99.90;;;;;;4967017;28;20406;-82
2022/01/11 09:27:02;;;;;;;;;;;-0.10;99.90;;;;;;4986685;28;20087;-82
2022/01/11 09:29:32;;;;;;;;;;;-0.10;99.90;;;;;;4982607;28;19930;-82
2022/01/11 09:32:00;;;;;;;;;;;-0.10;99.90;;;;;;4982750;28;19926;-81
2022/01/11 09:34:29;;;;;;;;;;;-0.10;99.90;;;;;;4975871;28;19946;-81
2022/01/11 09:36:57;;;;;;;;;;;0.00;99.90;;;;;;4983870;28;19965;-81
2022/01/11 09:39:25;;;;;;;;;;;0.00;99.90;;;;;;4949900;28;20328;-81
2022/01/11 09:41:53;;;;;;;;;;;0.00;99.90;;;;;;4966537;28;19930;-81
2022/01/11 09:44:23;;;;;;;;;;;0.00;99.90;;;;;;4980058;28;19922;-82
2022/01/11 09:46:50;;;;;;;;;;;0.00;99.90;;;;;;4968191;28;19930;-81
2022/01/11 09:49:17;;;;;;;;;;;0.00;99.90;;;;;;4968598;28;20020;-82
2022/01/11 09:51:46;;;;;;;;;;;0.00;99.90;;;;;;4962441;28;20025;-82
2022/01/11 09:54:13;;;;;;;;;;;0.00;99.90;;;;;;4969060;28;19922;-82
2022/01/11 09:56:52;;;;;;;;;;;0.00;99.90;;;;;;4768954;28;10000195;-81
2022/01/11 09:59:19;;;;;;;;;;;0.10;99.90;;;;;;678084;28;10002061;-82
2022/01/11 10:02:13;;;;;;;;;;;0.10;99.90;;;;;;4947985;28;20516;-82
2022/01/11 10:05:07;;;;;;;;;;;0.10;99.90;;;;;;4958692;28;19933;-82
2022/01/11 10:07:40;;;;;;;;;;;0.10;99.90;;;;;;4947415;28;19930;-82
2022/01/11 10:10:16;;;;;;;;;;;0.10;99.90;;;;;;4950476;28;20360;-82
2022/01/11 10:12:46;;;;;;;;;;;0.20;99.90;;;;;;4939752;28;20384;-82
2022/01/11 10:15:15;;;;;;;;;;;0.20;99.90;;;;;;4961542;28;19930;-81
2022/01/11 10:17:43;;;;;;;;;;;0.20;99.90;;;;;;4939609;28;20351;-81
2022/01/11 10:20:16;;;;;;;;;;;0.20;99.90;;;;;;4960263;28;20013;-81
2022/01/11 10:23:08;;;;;;;;;;;0.30;99.90;;;;;;4962933;28;19922;-82
2022/01/11 10:25:45;;;;;;;;;;;0.30;99.90;;;;;;4972356;28;19926;-82
2022/01/11 10:28:31;;;;;;;;;;;0.30;99.90;;;;;;4959463;28;20479;-81
2022/01/11 10:30:58;;;;;;;;;;;0.30;99.90;;;;;;4964005;28;19930;-81
2022/01/11 10:33:25;;;;;;;;;;;0.30;99.90;;;;;;4963589;28;20384;-81
2022/01/11 10:35:52;;;;;;;;;;;0.40;99.90;;;;;;4964422;28;19922;-82
2022/01/11 10:38:24;;;;;;;;;;;0.40;99.90;;;;;;4967046;28;19993;-82
2022/01/11 10:40:53;;;;;;;;;;;0.40;99.90;;;;;;4961349;28;19922;-82
2022/01/11 10:43:20;;;;;;;;;;;0.40;99.90;;;;;;4967091;28;20032;-82
2022/01/11 10:45:52;;;;;;;;;;;0.40;99.90;;;;;;4982146;28;20331;-82
2022/01/11 10:48:25;;;;;;;;;;;0.50;99.90;;;;;;4975405;28;19925;-82
2022/01/11 10:50:56;;;;;;;;;;;0.50;99.90;;;;;;4981952;28;19922;-82
2022/01/11 10:53:27;;;;;;;;;;;0.50;99.90;;;;;;4979430;28;20359;-82
2022/01/11 10:55:59;;;;;;;;;;;0.50;99.90;;;;;;4971062;28;20333;-82
2022/01/11 10:59:23;;;;;;;;;;;0.50;99.90;;;;;;4958769;28;20132;-82
2022/01/11 11:01:52;;;;;;;;;;;0.50;99.90;;;;;;4972273;28;19938;-82
2022/01/11 11:04:29;;;;;;;;;;;0.50;99.90;;;;;;4962678;28;19925;-82
2022/01/11 11:07:18;;;;;;;;;;;0.60;99.90;;;;;;4977811;28;19944;-82
2022/01/11 11:09:58;;;;;;;;;;;0.60;99.90;;;;;;4947421;28;19933;-82
2022/01/11 11:12:26;;;;;;;;;;;0.60;99.90;;;;;;4961286;28;20515;-82
2022/01/11 11:15:03;;;;;;;;;;;0.60;99.90;;;;;;4980848;28;19929;-82
2022/01/11 11:17:36;;;;;;;;;;;0.60;99.90;;;;;;4979611;28;19992;-82
2022/01/11 11:20:30;;;;;;;;;;;0.60;99.90;;;;;;4978472;28;19933;-81
2022/01/11 11:22:58;;;;;;;;;;;0.60;99.90;;;;;;4962446;28;19925;-82
2022/01/11 11:25:25;;;;;;;;;;;0.70;99.90;;;;;;4962957;28;19930;-81
2022/01/11 11:27:53;;;;;;;;;;;0.60;99.90;;;;;;4967402;28;20009;-81
2022/01/11 11:30:20;;;;;;;;;;;0.60;99.90;;;;;;4969669;28;19922;-80
2022/01/11 11:32:47;;;;;;;;;;;0.60;99.90;;;;;;4967371;28;19948;-80
2022/01/11 11:35:15;;;;;;;;;;;0.60;99.90;;;;;;4966090;28;19998;-80
2022/01/11 11:37:45;;;;;;;;;;;0.60;99.90;;;;;;4964418;28;20423;-81
2022/01/11 11:40:14;;;;;;;;;;;0.60;99.90;;;;;;4968008;28;20014;-81
2022/01/11 11:42:42;;;;;;;;;;;0.60;99.90;;;;;;4966237;28;19974;-81
2022/01/11 11:45:19;;;;;;;;;;;0.70;99.90;;;;;;4965271;28;19928;-81
2022/01/11 11:47:47;;;;;;;;;;;0.70;99.90;;;;;;4946339;28;19929;-81
2022/01/11 11:50:19;;;;;;;;;;;0.70;99.90;;;;;;4950047;28;19922;-80
2022/01/11 11:52:47;;;;;;;;;;;0.70;99.90;;;;;;4954229;28;20395;-81
2022/01/11 11:55:30;;;;;;;;;;;0.70;99.90;;;;;;4970520;28;20304;-81
2022/01/11 11:58:18;;;;;;;;;;;0.70;99.90;;;;;;2462738;28;10022100;-81
2022/01/11 12:00:46;;;;;;;;;;;0.80;99.90;;;;;;3581840;28;10001527;-81
2022/01/11 12:03:16;;;;;;;;;;;0.80;99.90;;;;;;4946179;28;19930;-81
2022/01/11 12:05:47;;;;;;;;;;;0.80;99.90;;;;;;4947800;28;19926;-81
2022/01/11 12:08:35;;;;;;;;;;;0.90;99.90;;;;;;4947165;28;20246;-82
2022/01/11 12:11:04;;;;;;;;;;;0.90;99.90;;;;;;4943355;28;19977;-82
2022/01/11 12:13:50;;;;;;;;;;;0.90;99.90;;;;;;4946715;28;20543;-82
2022/01/11 12:16:24;;;;;;;;;;;0.90;99.90;;;;;;4944986;28;19950;-82
2022/01/11 12:18:51;;;;;;;;;;;0.90;99.90;;;;;;4976046;28;20413;-81
2022/01/11 12:21:20;;;;;;;;;;;0.90;99.90;;;;;;4966804;28;19973;-82
2022/01/11 12:23:49;;;;;;;;;;;0.90;99.90;;;;;;4965770;28;19922;-81
2022/01/11 12:26:19;;;;;;;;;;;0.90;99.90;;;;;;4981418;28;19980;-82
2022/01/11 12:29:09;;;;;;;;;;;1.00;99.90;;;;;;4959877;28;20386;-82
2022/01/11 12:31:45;;;;;;;;;;;0.90;99.90;;;;;;4965860;28;19929;-82
2022/01/11 12:34:13;;;;;;;;;;;0.90;99.90;;;;;;4963715;28;19958;-81
2022/01/11 12:36:58;;;;;;;;;;;0.90;99.90;;;;;;4968480;28;20303;-81
2022/01/11 12:39:26;;;;;;;;;;;0.80;99.90;;;;;;4964850;28;20072;-81
2022/01/11 12:41:54;;;;;;;;;;;0.80;99.90;;;;;;4977158;28;19925;-81
2022/01/11 12:45:35;;;;;;;;;;;0.80;99.90;;;;;;4962531;28;20054;-81
2022/01/11 12:47:22;;;;;;;;;;;0.70;99.90;;;;;;4973701;28;19925;-81
2022/01/11 12:50:03;;;;;;;;;;;0.70;99.90;;;;;;4980366;28;20416;-81
2022/01/11 12:52:31;;;;;;;;;;;0.70;99.90;;;;;;4980855;28;20249;-81
2022/01/11 12:54:58;;;;;;;;;;;0.60;99.90;;;;;;4973433;28;19988;-81
2022/01/11 12:57:26;;;;;;;;;;;0.60;99.90;;;;;;4967723;28;19930;-81
2022/01/11 12:59:55;;;;;;;;;;;0.60;99.90;;;;;;4966257;28;19989;-82
2022/01/11 13:02:24;;;;;;;;;;;0.60;99.90;;;;;;4961894;28;19930;-81
2022/01/11 13:05:02;;;;;;;;;;;0.50;99.90;;;;;;4979756;28;19921;-81
2022/01/11 13:07:30;;;;;;;;;;;0.50;99.90;;;;;;4960103;28;20025;-81
2022/01/11 13:09:57;;;;;;;;;;;0.50;99.90;;;;;;4967652;28;19922;-81
2022/01/11 13:12:49;;;;;;;;;;;0.40;99.90;;;;;;4964451;28;20294;-81
2022/01/11 13:15:22;;;;;;;;;;;0.40;99.90;;;;;;4966726;28;19922;-81
2022/01/11 13:17:50;;;;;;;;;;;0.30;99.90;;;;;;4980983;28;19934;-81
2022/01/11 13:20:42;;;;;;;;;;;0.30;99.90;;;;;;4977173;28;19927;-82
2022/01/11 13:25:40;;;;;;;;;;;0.30;99.90;;;;;;4966156;28;19933;-82
2022/01/11 13:28:07;;;;;;;;;;;0.20;99.90;;;;;;4963640;28;20436;-82
2022/01/11 13:30:54;;;;;;;;;;;0.20;99.90;;;;;;4963501;28;19922;-82
2022/01/11 13:33:26;;;;;;;;;;;0.20;99.90;;;;;;4981097;28;19934;-82
2022/01/11 13:35:59;;;;;;;;;;;0.10;99.90;;;;;;4969810;28;19958;-82
2022/01/11 13:38:32;;;;;;;;;;;0.10;99.90;;;;;;4964198;28;19938;-82
2022/01/11 13:40:59;;;;;;;;;;;0.10;99.90;;;;;;4974780;28;19926;-82
2022/01/11 13:43:45;;;;;;;;;;;0.10;99.90;;;;;;4966879;28;19969;-82
2022/01/11 13:46:17;;;;;;;;;;;0.10;99.90;;;;;;4960502;28;19922;-83
2022/01/11 13:48:47;;;;;;;;;;;0.00;99.90;;;;;;4978364;28;20016;-83
2022/01/11 13:51:15;;;;;;;;;;;0.00;99.90;;;;;;4965277;28;20029;-83
2022/01/11 13:53:42;;;;;;;;;;;0.00;99.90;;;;;;4981870;28;19926;-83
2022/01/11 13:56:15;;;;;;;;;;;0.00;99.90;;;;;;4979481;28;19926;-83
2022/01/11 13:58:49;;;;;;;;;;;-0.10;99.90;;;;;;4963932;28;19953;-83
2022/01/11 14:01:17;;;;;;;;;;;-0.10;99.90;;;;;;4964869;28;19966;-82
2022/01/11 14:03:44;;;;;;;;;;;-0.20;99.90;;;;;;4967769;28;19923;-83
2022/01/11 14:06:15;;;;;;;;;;;-0.20;99.90;;;;;;4965805;28;20044;-83
2022/01/11 14:08:49;;;;;;;;;;;-0.20;99.90;;;;;;4964941;28;20315;-83
2022/01/11 14:11:38;;;;;;;;;;;-0.20;99.90;;;;;;4954861;28;20036;-82
2022/01/11 14:14:06;;;;;;;;;;;-0.30;99.90;;;;;;4960366;28;19922;-82
2022/01/11 14:16:54;;;;;;;;;;;-0.40;99.90;;;;;;4974170;28;20328;-82
2022/01/11 14:19:23;;;;;;;;;;;-0.40;99.90;;;;;;4966983;28;19922;-82
2022/01/11 14:21:51;;;;;;;;;;;-0.40;99.90;;;;;;4963275;28;19922;-82
2022/01/11 14:24:23;;;;;;;;;;;-0.50;99.90;;;;;;4965416;28;19930;-82
2022/01/11 14:26:50;;;;;;;;;;;-0.50;99.90;;;;;;4962362;28;19981;-82
2022/01/11 14:29:21;;;;;;;;;;;-0.50;99.90;;;;;;4964029;28;19930;-82
2022/01/11 14:32:02;;;;;;;;;;;-0.50;99.90;;;;;;4978194;28;20255;-83
2022/01/11 14:34:33;;;;;;;;;;;-0.50;99.90;;;;;;4961730;28;19961;-83
2022/01/11 14:37:20;;;;;;;;;;;-0.60;99.90;;;;;;4964279;28;19922;-83
2022/01/11 14:39:47;;;;;;;;;;;-0.60;99.90;;;;;;4982773;28;19930;-83
2022/01/11 14:42:24;;;;;;;;;;;-0.60;99.90;;;;;;4981156;28;19980;-83
2022/01/11 14:45:06;;;;;;;;;;;-0.60;99.90;;;;;;4961120;28;20447;-82
2022/01/11 14:47:48;;;;;;;;;;;-0.60;99.90;;;;;;4976463;28;19943;-83